Time;durP1;ratioP1;P1;durP2;ratioP2;P2;SDS_P1;SDS_P2;PMS_P1;PMS_P2;Temp;Humidity;BMP_temperature;BMP_pressure;BME280_temperature;BME280_humidity;BME280_pressure;Samples;Min_cycle;Max_cycle;Signal;HPM_P1;HPM_P2
2021/04/25 00:00:24;;;;;;;43.63;19.55;;;;;;;9.84;49.86;99374.52;263376;1099;114708;-66
2021/04/25 00:05:47;;;;;;;37.18;19.45;;;;;;;9.80;49.76;99366.80;263549;1102;115096;-68
2021/04/25 00:10:53;;;;;;;40.03;19.03;;;;;;;9.75;49.98;99358.20;263419;1100;115146;-68
2021/04/25 00:15:59;;;;;;;36.98;18.75;;;;;;;9.68;50.01;99366.52;263014;1104;115300;-69
2021/04/25 00:21:02;;;;;;;37.45;19.20;;;;;;;9.65;50.07;99363.17;262859;1099;114884;-69
2021/04/25 00:26:05;;;;;;;37.23;18.95;;;;;;;9.61;49.93;99346.53;263436;1103;114734;-67
2021/04/25 00:31:08;;;;;;;34.78;17.90;;;;;;;9.59;50.39;99351.05;263421;1100;114939;-66
2021/04/25 00:36:11;;;;;;;35.15;18.18;;;;;;;9.56;49.97;99356.53;263396;1104;114888;-65
2021/04/25 00:41:14;;;;;;;40.50;18.70;;;;;;;9.55;50.64;99351.31;263425;1099;115100;-66
2021/04/25 00:46:17;;;;;;;37.05;18.08;;;;;;;9.52;50.74;99351.47;263491;1104;114741;-66
2021/04/25 00:51:23;;;;;;;35.45;17.78;;;;;;;9.52;50.78;99352.33;263404;1099;114755;-67
2021/04/25 00:56:26;;;;;;;39.13;17.90;;;;;;;9.53;51.05;99351.38;263491;1103;114622;-66
2021/04/25 01:01:28;;;;;;;36.50;16.35;;;;;;;9.53;50.67;99347.86;263448;1099;115195;-67
2021/04/25 01:06:31;;;;;;;32.63;15.93;;;;;;;9.52;50.70;99352.33;263479;1103;114712;-67
2021/04/25 01:11:37;;;;;;;27.73;14.43;;;;;;;9.51;51.22;99352.39;263473;1099;115215;-67
2021/04/25 01:16:40;;;;;;;26.60;13.48;;;;;;;9.50;51.11;99350.68;263422;1102;114734;-67
2021/04/25 01:21:43;;;;;;;29.33;13.58;;;;;;;9.51;50.52;99345.30;263453;1100;115201;-71
2021/04/25 01:26:45;;;;;;;27.10;13.10;;;;;;;9.53;50.25;99339.89;263514;1104;114786;-68
2021/04/25 01:31:48;;;;;;;25.00;11.65;;;;;;;9.55;50.55;99338.03;263365;1099;115063;-68
2021/04/25 01:36:56;;;;;;;24.60;11.33;;;;;;;9.53;50.46;99339.89;263456;1102;114614;-68
2021/04/25 01:42:08;;;;;;;23.35;11.68;;;;;;;9.52;50.29;99341.70;263484;1099;114842;-70
2021/04/25 01:47:13;;;;;;;23.60;12.13;;;;;;;9.51;50.53;99337.33;263356;1104;115517;-66
2021/04/25 01:52:15;;;;;;;25.38;11.60;;;;;;;9.43;50.78;99332.40;263441;1098;114779;-67
2021/04/25 01:57:18;;;;;;;28.73;12.05;;;;;;;9.38;50.73;99325.63;263478;1103;115348;-67
2021/04/25 02:02:23;;;;;;;26.98;12.28;;;;;;;9.36;50.94;99324.84;263440;1098;114967;-67
2021/04/25 02:07:26;;;;;;;;;;;;;;;9.33;51.58;99317.03;263477;1103;114827;-67
2021/04/25 02:12:29;;;;;;;22.45;11.80;;;;;;;9.27;51.33;99327.97;263487;1098;101537;-66
2021/04/25 02:17:32;;;;;;;27.40;13.55;;;;;;;9.26;51.23;99321.80;263438;1101;114619;-66
2021/04/25 02:22:35;;;;;;;26.73;12.08;;;;;;;9.26;51.08;99323.61;263065;1099;114972;-68
2021/04/25 02:27:38;;;;;;;22.48;11.85;;;;;;;9.25;51.24;99320.09;263454;1103;115164;-67
2021/04/25 02:32:41;;;;;;;23.45;11.60;;;;;;;9.28;51.49;99311.12;263432;1099;114749;-66
2021/04/25 02:37:45;;;;;;;25.90;11.35;;;;;;;9.27;51.40;99309.38;262547;1105;115100;-69
2021/04/25 02:42:48;;;;;;;21.13;10.88;;;;;;;9.25;50.77;99304.16;263045;1099;115311;-69
2021/04/25 02:48:09;;;;;;;20.78;10.93;;;;;;;9.24;51.33;99305.97;263474;1103;114664;-69
2021/04/25 02:53:13;;;;;;;24.90;11.10;;;;;;;9.24;50.96;99302.45;263443;1098;115379;-67
2021/04/25 02:58:16;;;;;;;23.25;11.35;;;;;;;9.23;51.03;99306.88;263407;1102;114647;-67
2021/04/25 03:03:19;;;;;;;24.10;13.08;;;;;;;9.22;51.18;99310.48;263420;1099;114518;-67
2021/04/25 03:08:22;;;;;;;24.00;12.38;;;;;;;9.21;50.97;99306.13;263463;1102;114531;-64
2021/04/25 03:13:25;;;;;;;27.05;11.95;;;;;;;9.18;51.55;99297.45;263431;1099;114737;-68
2021/04/25 03:18:29;;;;;;;25.65;11.83;;;;;;;9.14;51.39;99302.07;263463;1103;115363;-70
2021/04/25 03:23:33;;;;;;;27.20;11.70;;;;;;;9.12;51.31;99301.28;263417;1100;114833;-68
2021/04/25 03:28:35;;;;;;;24.95;12.40;;;;;;;9.08;51.07;99296.22;263490;1101;114851;-67
2021/04/25 03:33:38;;;;;;;29.25;13.53;;;;;;;9.04;51.79;99286.70;263422;1099;115385;-66
2021/04/25 03:38:41;;;;;;;27.93;13.75;;;;;;;9.02;51.21;99288.56;263073;1103;114562;-68
2021/04/25 03:43:49;;;;;;;27.05;14.28;;;;;;;8.99;51.76;99294.88;263033;1099;114815;-72
2021/04/25 03:48:54;;;;;;;;;;;;;;;8.93;51.39;99285.46;263503;1103;114581;-70
2021/04/25 03:53:57;;;;;;;27.78;13.60;;;;;;;8.85;51.58;99287.63;263553;1099;101090;-68
2021/04/25 03:59:01;;;;;;;31.60;15.70;;;;;;;8.83;51.96;99292.17;263451;1103;114415;-65
2021/04/25 04:04:04;;;;;;;34.85;16.05;;;;;;;8.81;52.15;99294.03;263462;1099;114864;-66
2021/04/25 04:09:07;;;;;;;31.45;14.73;;;;;;;8.75;51.48;99294.34;263506;1104;114889;-66
2021/04/25 04:14:10;;;;;;;31.23;15.13;;;;;;;8.71;52.39;99296.29;263405;1103;114716;-67
2021/04/25 04:19:12;;;;;;;29.35;14.95;;;;;;;8.71;52.74;99290.98;263485;1099;114701;-66
2021/04/25 04:24:15;;;;;;;31.50;15.23;;;;;;;8.73;52.39;99299.73;263468;1104;114528;-65
2021/04/25 04:29:18;;;;;;;27.38;15.48;;;;;;;8.71;52.18;99292.78;263362;1099;114716;-66
2021/04/25 04:34:21;;;;;;;34.15;15.40;;;;;;;8.72;52.33;99300.66;262867;1105;114889;-67
2021/04/25 04:39:24;;;;;;;28.35;13.73;;;;;;;8.73;51.99;99305.05;263122;1100;115717;-67
2021/04/25 04:44:27;;;;;;;32.30;14.75;;;;;;;8.74;52.21;99308.55;263432;1104;115266;-68
2021/04/25 04:49:30;;;;;;;27.25;13.50;;;;;;;8.79;52.45;99308.31;263416;1099;114812;-69
2021/04/25 04:54:33;;;;;;;24.88;13.95;;;;;;;8.80;52.07;99307.36;263531;1103;114613;-69
2021/04/25 04:59:37;;;;;;;31.65;13.95;;;;;;;8.80;52.53;99310.02;263444;1099;114673;-69
2021/04/25 05:04:42;;;;;;;25.13;13.50;;;;;;;8.80;51.89;99310.91;263416;1101;114857;-71
2021/04/25 05:09:50;;;;;;;28.60;12.48;;;;;;;8.83;51.91;99305.45;263431;1099;114528;-72
2021/04/25 05:14:54;;;;;;;34.80;12.50;;;;;;;8.86;52.33;99315.02;263425;1104;114920;-71
2021/04/25 05:19:59;;;;;;;25.75;12.98;;;;;;;8.89;51.61;99314.88;263382;1098;115185;-71
2021/04/25 05:25:09;;;;;;;28.40;13.15;;;;;;;8.96;52.82;99313.62;263510;1104;115061;-70
2021/04/25 05:30:13;;;;;;;28.65;13.73;;;;;;;9.05;52.21;99304.34;263339;1098;114765;-69
2021/04/25 05:35:22;;;;;;;24.85;13.78;;;;;;;9.08;52.42;99312.15;263454;1104;114831;-70
2021/04/25 05:40:27;;;;;;;27.10;13.33;;;;;;;9.12;52.47;99314.55;263412;1099;115197;-68
2021/04/25 05:45:31;;;;;;;25.33;12.73;;;;;;;9.20;52.40;99315.03;263474;1103;114920;-69
2021/04/25 05:50:34;;;;;;;25.18;12.35;;;;;;;9.26;52.18;99316.49;263394;1103;120419;-69
2021/04/25 05:55:37;;;;;;;27.93;12.85;;;;;;;9.28;52.46;99319.09;263414;1103;114892;-68
2021/04/25 06:00:40;;;;;;;25.60;12.95;;;;;;;9.33;52.29;99312.58;263426;1099;114720;-69
2021/04/25 06:05:43;;;;;;;20.73;12.13;;;;;;;9.41;52.47;99310.39;263427;1103;114873;-67
2021/04/25 06:10:51;;;;;;;24.00;12.65;;;;;;;9.53;52.37;99316.84;263405;1099;115114;-71
2021/04/25 06:15:58;;;;;;;31.18;13.10;;;;;;;9.62;52.47;99315.50;263432;1102;115136;-69
2021/04/25 06:21:02;;;;;;;28.05;13.03;;;;;;;9.73;52.53;99309.60;263379;1098;115151;-69
2021/04/25 06:26:06;;;;;;;25.25;12.48;;;;;;;9.83;52.10;99309.02;263428;1103;114996;-70
2021/04/25 06:31:13;;;;;;;23.73;12.73;;;;;;;9.93;52.29;99312.88;263419;1098;114802;-74
2021/04/25 06:36:18;;;;;;;28.63;13.88;;;;;;;10.01;52.40;99319.58;263459;1101;114875;-68
2021/04/25 06:41:21;;;;;;;26.73;13.70;;;;;;;10.09;52.31;99312.91;263422;1100;114807;-67
2021/04/25 06:46:25;;;;;;;24.93;14.05;;;;;;;10.16;52.22;99308.10;263463;1103;115113;-65
2021/04/25 06:51:27;;;;;;;23.78;13.85;;;;;;;10.27;52.13;99313.70;263364;1099;114917;-66
2021/04/25 06:56:30;;;;;;;23.67;12.43;;;;;;;10.37;51.64;99306.06;263449;1104;115066;-65
2021/04/25 07:01:33;;;;;;;23.58;13.28;;;;;;;10.49;51.49;99305.34;263421;1099;114953;-65
2021/04/25 07:06:40;;;;;;;23.83;13.18;;;;;;;10.55;51.46;99312.98;263406;1103;115514;-66
2021/04/25 07:11:43;;;;;;;23.83;12.50;;;;;;;10.61;51.33;99312.63;263376;1099;115312;-66
2021/04/25 07:16:46;;;;;;;22.48;11.83;;;;;;;10.68;51.20;99306.95;263292;1104;115418;-66
2021/04/25 07:21:49;;;;;;;23.78;11.45;;;;;;;10.76;50.74;99312.68;263359;1100;115046;-65
2021/04/25 07:26:53;;;;;;;22.75;11.08;;;;;;;10.85;50.71;99305.02;263444;1104;115017;-65
2021/04/25 07:31:58;;;;;;;11.03;5.90;;;;;;;10.95;49.37;99307.14;263451;1104;114872;-65
2021/04/25 07:37:04;;;;;;;8.00;3.88;;;;;;;10.95;47.71;99297.34;263411;1103;114840;-66
2021/04/25 07:42:08;;;;;;;7.30;3.73;;;;;;;10.96;47.06;99308.84;263403;1098;114777;-65
2021/04/25 07:47:11;;;;;;;10.55;5.05;;;;;;;11.00;46.52;99310.38;263310;1104;115119;-65
2021/04/25 07:52:14;;;;;;;6.83;4.10;;;;;;;11.01;46.50;99304.98;263431;1099;115500;-66
2021/04/25 07:57:17;;;;;;;9.63;3.70;;;;;;;11.03;45.56;99302.20;263456;1097;115651;-66
2021/04/25 08:02:22;;;;;;;7.50;3.60;;;;;;;11.03;45.01;99302.20;263371;1099;114584;-67
2021/04/25 08:07:30;;;;;;;9.13;3.70;;;;;;;11.03;45.14;99304.87;262481;1105;114692;-70
2021/04/25 08:13:13;;;;;;;6.85;3.40;;;;;;;11.09;44.27;99294.71;262939;1099;114881;-71
2021/04/25 08:18:37;;;;;;;4.80;3.00;;;;;;;11.08;43.85;99292.16;263262;1104;114859;-73
2021/04/25 08:23:45;;;;;;;5.13;3.00;;;;;;;11.13;44.09;99282.06;263133;1105;115176;-65
2021/04/25 08:29:23;;;;;;;5.60;3.63;;;;;;;11.14;43.59;99278.47;263224;1101;114911;-67
2021/04/25 08:34:37;;;;;;;5.70;3.40;;;;;;;11.22;43.10;99286.84;263252;1104;114803;-66
2021/04/25 08:39:50;;;;;;;4.80;3.00;;;;;;;11.27;42.25;99291.88;263342;1099;114999;-68
2021/04/25 08:44:58;;;;;;;6.43;3.40;;;;;;;11.23;42.38;99279.70;262716;1104;114908;-67
2021/04/25 08:50:07;;;;;;;7.08;3.58;;;;;;;11.26;42.23;99283.03;262079;1101;114880;-66
2021/04/25 08:55:32;;;;;;;6.20;3.55;;;;;;;11.32;41.77;99266.68;262344;1104;115281;-65
2021/04/25 09:00:49;;;;;;;5.40;3.23;;;;;;;11.40;41.37;99265.34;263057;1099;114824;-69
2021/04/25 09:06:10;;;;;;;7.80;3.98;;;;;;;11.50;41.21;99262.02;263454;1104;114840;-67
2021/04/25 09:11:40;;;;;;;8.55;3.83;;;;;;;11.64;40.93;99263.81;263129;1099;114572;-69
2021/04/25 09:17:02;;;;;;;7.15;3.95;;;;;;;11.68;41.08;99252.00;263421;1101;114617;-68
2021/04/25 09:22:14;;;;;;;7.43;3.88;;;;;;;11.78;40.81;99244.27;263377;1099;115202;-70
2021/04/25 09:27:59;;;;;;;;;;;;;;;;;;;;;
2021/04/25 09:33:13;;;;;;;7.23;3.53;;;;;;;11.69;39.98;99253.73;263211;1099;114725;-67
2021/04/25 09:38:42;;;;;;;6.85;3.98;;;;;;;11.70;39.86;99259.92;263476;1101;115113;-66
2021/04/25 09:43:49;;;;;;;10.93;4.13;;;;;;;11.74;39.78;99266.77;263475;1099;114988;-67
2021/04/25 09:48:52;;;;;;;8.68;4.38;;;;;;;11.80;40.67;99253.05;263422;1104;114966;-67
2021/04/25 09:54:04;;;;;;;10.75;4.93;;;;;;;11.94;40.51;99254.86;263428;1099;114900;-68
2021/04/25 09:59:08;;;;;;;10.18;4.18;;;;;;;12.00;40.65;99249.14;263441;1103;115921;-65
2021/04/25 10:04:34;;;;;;;7.00;3.95;;;;;;;12.07;40.61;99245.12;263375;1100;114844;-66
2021/04/25 10:09:39;;;;;;;9.00;3.98;;;;;;;12.17;40.41;99240.05;263463;1103;114916;-60
2021/04/25 10:14:49;;;;;;;7.80;4.40;;;;;;;12.39;40.72;99236.80;263125;1099;115450;-67
2021/04/25 10:20:20;;;;;;;7.00;3.95;;;;;;;12.44;38.83;99243.56;263373;1102;114683;-69
2021/04/25 10:26:12;;;;;;;;;;;;;;;;;;;;;
2021/04/25 10:37:56;;;;;;;20.83;14.25;;;;;;;13.62;41.39;99226.56;261487;1105;118426;-68
2021/04/25 10:43:18;;;;;;;33.13;22.93;;;;;;;13.82;40.08;99228.66;262324;1102;115089;-67
2021/04/25 10:48:24;;;;;;;8.50;3.95;;;;;;;13.65;38.16;99224.52;261391;1105;115052;-68
2021/04/25 10:54:11;;;;;;;49.63;32.83;;;;;;;13.79;39.59;99215.53;260762;1103;114472;-69
2021/04/25 10:59:24;;;;;;;26.58;17.85;;;;;;;14.43;40.59;99212.58;262122;1106;115797;-68
2021/04/25 11:04:59;;;;;;;7.50;4.13;;;;;;;14.34;37.85;99218.64;262420;1101;115211;-68
2021/04/25 11:10:43;;;;;;;7.00;3.73;;;;;;;14.24;37.58;99222.98;263154;1104;114908;-70
2021/04/25 11:15:53;;;;;;;7.05;3.63;;;;;;;14.11;37.40;99214.98;263406;1099;114836;-66
2021/04/25 11:21:02;;;;;;;6.05;3.80;;;;;;;13.98;37.01;99223.05;263425;1104;114633;-65
2021/04/25 11:26:38;;;;;;;5.88;3.00;;;;;;;13.87;36.57;99213.14;263428;1099;114822;-66
2021/04/25 11:31:57;;;;;;;5.10;3.10;;;;;;;13.92;36.57;99213.64;263264;1104;115736;-66
2021/04/25 11:37:18;;;;;;;6.58;3.40;;;;;;;14.29;36.35;99194.88;263382;1099;114864;-66
2021/04/25 11:42:37;;;;;;;7.90;3.80;;;;;;;14.11;36.09;99206.96;263355;1104;114631;-73
2021/04/25 11:47:56;;;;;;;6.15;3.50;;;;;;;13.79;35.54;99206.63;262992;1099;114450;-69
2021/04/25 11:53:07;;;;;;;7.48;3.58;;;;;;;13.56;36.32;99208.31;263164;1100;115675;-68
2021/04/25 11:58:39;;;;;;;7.55;3.95;;;;;;;13.78;36.28;99204.92;263403;1100;114702;-67
2021/04/25 12:04:01;;;;;;;6.53;3.27;;;;;;;13.68;36.61;99204.73;262994;1101;115849;-68
2021/04/25 12:09:21;;;;;;;8.28;4.15;;;;;;;13.57;36.39;99216.20;263342;1099;114921;-70
2021/04/25 12:15:22;;;;;;;7.10;4.23;;;;;;;13.22;35.37;99222.20;263323;1099;115176;-67
2021/04/25 12:20:34;;;;;;;8.20;3.80;;;;;;;13.07;35.67;99217.06;263336;1104;115064;-68
2021/04/25 12:25:53;;;;;;;6.48;3.78;;;;;;;12.97;35.98;99212.34;263391;1099;114438;-67
2021/04/25 12:30:59;;;;;;;8.70;3.80;;;;;;;12.95;36.56;99208.09;263432;1104;114990;-66
2021/04/25 12:36:04;;;;;;;8.55;4.60;;;;;;;12.94;36.04;99212.59;263435;1099;114565;-65
2021/04/25 12:41:08;;;;;;;5.88;3.78;;;;;;;12.76;36.27;99217.34;263298;1104;114651;-65
2021/04/25 12:46:18;;;;;;;9.05;3.90;;;;;;;12.78;36.67;99212.77;263310;1099;114624;-63
2021/04/25 12:51:33;;;;;;;8.35;3.95;;;;;;;12.76;35.91;99216.50;263363;1104;114976;-67
2021/04/25 12:56:43;;;;;;;9.75;4.00;;;;;;;12.75;36.15;99212.98;263411;1099;114663;-70
2021/04/25 13:02:23;;;;;;;6.43;3.73;;;;;;;12.57;36.17;99216.91;263461;1103;115092;-66
2021/04/25 13:07:44;;;;;;;7.13;3.90;;;;;;;12.49;36.10;99214.73;263411;1099;115177;-68
2021/04/25 13:12:53;;;;;;;6.93;3.55;;;;;;;12.42;36.15;99215.25;263402;1104;114948;-67
2021/04/25 13:18:23;;;;;;;8.05;4.30;;;;;;;12.23;36.31;99219.16;263269;1098;114677;-67
2021/04/25 13:23:45;;;;;;;7.95;3.88;;;;;;;12.08;36.39;99217.48;263161;1104;114715;-68
2021/04/25 13:29:00;;;;;;;9.85;3.80;;;;;;;12.07;36.23;99218.44;262459;1105;114499;-67
2021/04/25 13:34:44;;;;;;;7.30;3.43;;;;;;;12.05;36.84;99218.52;263285;1100;114791;-68
2021/04/25 13:40:20;;;;;;;;;;;;;;;;;;;;;
2021/04/25 13:51:11;;;;;;;11.03;3.65;;;;;;;11.76;36.43;99209.73;262939;1101;115047;-66
2021/04/25 13:56:19;;;;;;;7.48;3.10;;;;;;;11.93;36.79;99211.34;263434;1100;114806;-64
2021/04/25 14:01:29;;;;;;;6.48;2.90;;;;;;;12.05;36.26;99212.34;263361;1099;114369;-67
2021/04/25 14:06:38;;;;;;;5.90;3.10;;;;;;;12.01;36.21;99229.50;263338;1104;115024;-64
2021/04/25 14:11:46;;;;;;;5.35;2.78;;;;;;;11.95;35.72;99219.23;263437;1099;114708;-63
2021/04/25 14:16:49;;;;;;;7.65;3.25;;;;;;;11.96;35.84;99221.81;263364;1104;115095;-64
2021/04/25 14:21:55;;;;;;;6.18;2.65;;;;;;;11.97;35.85;99225.33;263427;1099;114562;-65
2021/04/25 14:26:58;;;;;;;7.98;3.60;;;;;;;11.96;36.08;99221.81;263437;1101;114567;-66
2021/04/25 14:32:01;;;;;;;7.60;2.68;;;;;;;11.91;35.51;99233.72;263192;1100;114639;-66
2021/04/25 14:37:06;;;;;;;6.75;2.73;;;;;;;11.79;34.97;99222.02;263456;1100;114685;-67
2021/04/25 14:42:23;;;;;;;6.28;2.60;;;;;;;11.71;34.94;99227.81;263098;1099;114767;-66
2021/04/25 14:47:29;;;;;;;5.23;2.58;;;;;;;11.70;35.55;99235.92;262874;1103;114868;-67
2021/04/25 14:52:53;;;;;;;3.80;2.17;;;;;;;11.57;34.98;99233.17;263161;1100;114656;-66
2021/04/25 14:58:01;;;;;;;2.73;2.23;;;;;;;11.42;34.79;99242.14;263441;1103;114660;-66
2021/04/25 15:03:06;;;;;;;5.15;2.40;;;;;;;11.31;35.63;99245.44;263327;1099;114985;-66
2021/04/25 15:08:33;;;;;;;6.50;3.73;;;;;;;11.26;34.98;99236.89;263404;1104;114949;-66
2021/04/25 15:13:39;;;;;;;4.93;2.95;;;;;;;11.21;35.37;99241.63;263408;1099;114736;-66
2021/04/25 15:18:59;;;;;;;;;;;;;;;;;;;;;
2021/04/25 15:24:03;;;;;;;3.48;1.93;;;;;;;11.13;35.75;99258.09;263362;1104;114745;-67
2021/04/25 15:29:08;;;;;;;5.10;1.75;;;;;;;11.09;35.33;99265.41;263455;1103;114846;-67
2021/04/25 15:34:30;;;;;;;4.08;2.10;;;;;;;10.94;35.12;99271.67;263386;1099;114783;-67
2021/04/25 15:39:47;;;;;;;5.68;1.95;;;;;;;10.84;35.12;99267.84;263361;1102;114460;-66
2021/04/25 15:45:01;;;;;;;;;;;;;;;;;;;;;
2021/04/25 15:50:44;;;;;;;2.55;1.60;;;;;;;10.83;35.07;99292.73;263291;1102;114734;-67
2021/04/25 15:55:59;;;;;;;2.90;1.80;;;;;;;10.90;35.10;99275.44;263394;1102;115750;-68
2021/04/25 16:01:09;;;;;;;3.33;1.70;;;;;;;11.03;35.11;99273.77;263377;1099;115005;-67
2021/04/25 16:06:12;;;;;;;7.13;4.50;;;;;;;11.03;34.71;99283.56;263478;1100;114622;-68
2021/04/25 16:11:50;;;;;;;;;;;;;;;10.97;34.74;99275.94;263318;1099;114897;-68
2021/04/25 16:17:04;;;;;;;;;;;;;;;;;;;;;
2021/04/25 16:22:22;;;;;;;2.60;1.40;;;;;;;10.88;34.46;99285.34;262949;1099;101518;-68
2021/04/25 16:27:38;;;;;;;6.80;1.85;;;;;;;10.81;33.85;99290.17;263433;1100;114503;-67
2021/04/25 16:32:59;;;;;;;3.23;1.65;;;;;;;10.75;33.32;99292.34;263436;1099;115400;-68
2021/04/25 16:38:15;;;;;;;;;;;;;;;;;;;;;
2021/04/25 16:43:30;;;;;;;3.48;1.78;;;;;;;10.64;33.70;99292.97;263436;1100;114877;-68
2021/04/25 16:48:48;;;;;;;5.83;2.40;;;;;;;10.61;33.27;99299.32;263025;1100;115377;-68
2021/04/25 16:54:26;;;;;;;4.30;1.60;;;;;;;10.56;33.93;99311.17;263077;1098;114680;-68
2021/04/25 16:59:39;;;;;;;4.48;1.95;;;;;;;10.54;33.47;99305.95;263387;1103;114769;-67
2021/04/25 17:04:43;;;;;;;5.30;2.17;;;;;;;10.57;33.85;99315.57;263128;1098;116129;-67
2021/04/25 17:10:24;;;;;;;;;;;;;;;10.51;33.79;99321.23;263021;1104;114830;-68
2021/04/25 17:15:52;;;;;;;2.80;1.68;;;;;;;10.41;33.41;99329.73;263395;1099;101640;-67
2021/04/25 17:21:29;;;;;;;3.58;1.75;;;;;;;10.28;34.16;99334.02;263384;1103;114985;-68
2021/04/25 17:26:50;;;;;;;4.15;1.85;;;;;;;10.19;34.28;99343.36;263361;1098;114786;-68
2021/04/25 17:32:16;;;;;;;5.23;2.08;;;;;;;10.11;33.70;99350.89;262790;1104;115839;-68
2021/04/25 17:38:03;;;;;;;4.28;2.05;;;;;;;10.00;33.92;99352.44;262998;1104;114834;-69
2021/04/25 17:43:28;;;;;;;5.53;1.90;;;;;;;9.87;33.80;99350.43;262529;1102;115349;-68
2021/04/25 17:48:38;;;;;;;6.00;2.43;;;;;;;9.74;34.59;99354.69;263016;1104;114865;-68
2021/04/25 17:53:59;;;;;;;5.28;2.43;;;;;;;9.65;34.41;99368.48;263397;1098;114832;-67
2021/04/25 17:59:35;;;;;;;4.73;2.70;;;;;;;9.55;35.07;99368.11;263217;1101;115185;-67
2021/04/25 18:04:46;;;;;;;8.95;2.93;;;;;;;9.47;34.52;99376.45;263418;1099;114776;-68
2021/04/25 18:09:55;;;;;;;5.48;3.20;;;;;;;9.41;34.41;99374.14;263431;1104;114483;-68
2021/04/25 18:15:16;;;;;;;;;;;;;;;;;;;;;
2021/04/25 18:20:28;;;;;;;7.10;3.28;;;;;;;9.21;34.91;99396.41;263282;1104;115724;-69
2021/04/25 18:26:06;;;;;;;;;;;;;;;;;;;;;
2021/04/25 18:31:19;;;;;;;10.20;3.73;;;;;;;9.00;35.85;99416.93;263300;1104;115641;-68
2021/04/25 18:36:23;;;;;;;10.15;5.25;;;;;;;8.91;35.69;99408.56;263097;1099;115164;-68
2021/04/25 18:41:37;;;;;;;8.85;4.88;;;;;;;8.85;36.14;99416.81;263148;1103;114991;-67
2021/04/25 18:46:40;;;;;;;10.55;5.45;;;;;;;8.80;36.19;99421.47;263387;1099;114428;-68
2021/04/25 18:52:51;;;;;;;11.95;5.38;;;;;;;8.72;36.31;99428.02;262247;1107;115514;-68
2021/04/25 18:58:39;;;;;;;9.48;4.90;;;;;;;8.67;36.34;99429.19;263001;1102;114650;-69
2021/04/25 19:03:54;;;;;;;10.58;4.75;;;;;;;8.61;36.63;99427.67;262943;1102;115548;-68
2021/04/25 19:09:34;;;;;;;11.00;4.70;;;;;;;8.55;36.62;99430.61;263366;1100;116015;-70
2021/04/25 19:14:54;;;;;;;10.50;5.25;;;;;;;8.49;37.17;99433.55;263409;1100;114689;-67
2021/04/25 19:20:07;;;;;;;10.08;4.65;;;;;;;8.41;37.34;99443.67;263339;1104;115882;-67
2021/04/25 19:25:27;;;;;;;10.55;4.45;;;;;;;8.34;37.44;99439.55;263463;1099;114896;-67
2021/04/25 19:30:36;;;;;;;12.68;4.85;;;;;;;8.27;38.02;99438.98;263531;1103;115200;-67
2021/04/25 19:36:14;;;;;;;;;;;;;;;;;;;;;
2021/04/25 19:41:36;;;;;;;10.90;5.08;;;;;;;8.13;38.17;99444.06;263394;1101;114527;-67
2021/04/25 19:46:39;;;;;;;12.53;5.10;;;;;;;8.05;38.98;99449.72;263393;1098;115122;-70
2021/04/25 19:51:44;;;;;;;;;;;;;;;7.94;39.58;99446.66;263355;1104;115142;-67
2021/04/25 19:56:47;;;;;;;13.85;6.85;;;;;;;7.83;38.94;99447.15;263520;1099;101585;-66
2021/04/25 20:01:51;;;;;;;10.95;5.33;;;;;;;7.77;39.16;99458.01;263444;1100;115588;-67
2021/04/25 20:06:54;;;;;;;12.48;5.15;;;;;;;7.68;39.83;99459.29;263435;1100;115148;-67
2021/04/25 20:11:57;;;;;;;10.75;5.35;;;;;;;7.57;39.83;99441.22;263456;1099;116357;-67
2021/04/25 20:17:01;;;;;;;11.80;5.65;;;;;;;7.47;40.42;99449.59;263263;1099;114535;-67
2021/04/25 20:22:05;;;;;;;11.95;6.00;;;;;;;7.39;40.52;99449.08;262964;1104;115527;-67
2021/04/25 20:27:11;;;;;;;13.85;5.68;;;;;;;7.30;40.69;99443.26;263377;1098;116043;-67
2021/04/25 20:32:14;;;;;;;12.23;5.55;;;;;;;7.24;40.77;99445.30;263461;1103;114600;-67
2021/04/25 20:37:17;;;;;;;11.50;5.05;;;;;;;7.19;41.33;99445.47;263262;1099;114736;-67
2021/04/25 20:42:22;;;;;;;10.83;4.95;;;;;;;7.13;41.43;99455.45;263440;1104;115914;-67
2021/04/25 20:47:25;;;;;;;;;;;;;;;7.04;41.14;99454.91;263446;1099;114541;-67
2021/04/25 20:52:30;;;;;;;10.40;4.53;;;;;;;6.97;41.50;99452.59;263216;1103;100899;-69
2021/04/25 20:57:38;;;;;;;9.53;4.73;;;;;;;6.93;42.51;99458.91;263436;1099;115700;-70
2021/04/25 21:02:47;;;;;;;9.28;4.28;;;;;;;6.86;41.97;99455.64;263417;1102;114635;-70
2021/04/25 21:07:50;;;;;;;9.50;4.25;;;;;;;6.80;42.03;99453.27;263450;1098;114890;-73
2021/04/25 21:12:55;;;;;;;13.78;5.25;;;;;;;6.73;42.20;99454.44;263448;1104;115978;-73
2021/04/25 21:17:58;;;;;;;13.38;5.73;;;;;;;6.68;42.61;99454.59;263407;1100;114945;-73
2021/04/25 21:23:01;;;;;;;21.43;10.08;;;;;;;6.64;42.97;99453.00;263006;1100;114492;-75
2021/04/25 21:28:17;;;;;;;10.98;5.75;;;;;;;6.62;42.34;99449.55;263287;1099;115911;-78
2021/04/25 21:33:23;;;;;;;11.53;5.20;;;;;;;6.60;42.94;99451.41;263475;1104;114918;-69
2021/04/25 21:38:26;;;;;;;13.95;5.85;;;;;;;6.60;42.62;99457.55;263457;1099;114598;-70
2021/04/25 21:43:29;;;;;;;9.70;4.90;;;;;;;6.58;43.22;99454.09;263426;1104;115504;-68
2021/04/25 21:48:38;;;;;;;11.68;5.68;;;;;;;6.55;42.67;99448.92;263401;1098;114735;-70
2021/04/25 21:53:43;;;;;;;11.30;6.03;;;;;;;6.52;42.94;99450.83;263349;1104;114913;-68
2021/04/25 21:58:53;;;;;;;15.30;6.68;;;;;;;6.46;43.19;99448.45;263236;1099;115180;-69
2021/04/25 22:03:56;;;;;;;16.10;6.73;;;;;;;6.39;43.77;99443.39;263430;1104;115315;-69
2021/04/25 22:09:03;;;;;;;11.13;5.70;;;;;;;6.36;43.57;99448.79;263411;1099;114346;-70
2021/04/25 22:14:10;;;;;;;15.23;6.55;;;;;;;6.31;44.02;99434.88;263449;1104;114998;-71
2021/04/25 22:19:16;;;;;;;14.28;6.05;;;;;;;6.23;43.57;99442.25;263401;1099;116596;-71
2021/04/25 22:24:21;;;;;;;15.08;6.18;;;;;;;6.15;43.55;99434.61;263478;1102;116653;-69
2021/04/25 22:29:26;;;;;;;16.03;6.00;;;;;;;6.08;44.32;99426.95;263478;1099;114702;-71
2021/04/25 22:34:33;;;;;;;12.73;5.98;;;;;;;6.00;44.03;99435.17;263448;1104;115178;-69
2021/04/25 22:39:41;;;;;;;14.25;6.63;;;;;;;5.93;44.37;99426.61;263454;1099;114556;-69
2021/04/25 22:44:44;;;;;;;14.38;6.88;;;;;;;5.82;44.23;99412.05;263223;1101;114869;-73
2021/04/25 22:49:51;;;;;;;12.78;6.23;;;;;;;5.73;44.37;99420.30;263346;1099;115586;-72
2021/04/25 22:55:05;;;;;;;12.85;6.25;;;;;;;5.65;44.41;99413.52;263480;1104;115027;-70
2021/04/25 23:00:15;;;;;;;15.75;5.58;;;;;;;5.62;44.75;99418.91;263473;1099;114994;-73
2021/04/25 23:05:24;;;;;;;14.68;6.10;;;;;;;5.58;44.44;99419.09;263483;1103;115870;-74
2021/04/25 23:10:38;;;;;;;11.47;5.83;;;;;;;5.48;44.44;99410.63;263446;1098;116282;-74
2021/04/25 23:15:44;;;;;;;14.68;6.65;;;;;;;5.42;44.54;99410.84;263405;1103;114598;-72
2021/04/25 23:20:59;;;;;;;14.65;6.30;;;;;;;5.39;45.29;99414.44;263441;1098;116051;-70
2021/04/25 23:26:04;;;;;;;18.63;7.38;;;;;;;5.38;45.51;99414.50;263469;1104;116236;-69
2021/04/25 23:31:22;;;;;;;16.53;7.83;;;;;;;5.33;45.18;99406.76;263431;1099;114580;-69
2021/04/25 23:36:30;;;;;;;17.53;8.68;;;;;;;5.31;45.44;99405.94;263355;1104;115545;-69
2021/04/25 23:41:36;;;;;;;20.03;9.95;;;;;;;5.30;45.02;99414.78;263408;1099;115843;-69
2021/04/25 23:46:42;;;;;;;25.35;10.78;;;;;;;5.26;45.21;99405.22;263457;1103;115736;-70
2021/04/25 23:51:45;;;;;;;23.18;10.53;;;;;;;5.19;44.92;99415.12;263463;1099;114887;-70
2021/04/25 23:56:53;;;;;;;22.18;10.13;;;;;;;5.15;45.00;99415.28;263468;1104;115424;-70
